METAR AND TAF INFORMATION
METAR FOR LEDA
ADDS - METARS form results

(2344 UTC 28 January 2023)
Data provider http://aviationweather.gov/metar/data/
 
METAR text: LEDA 282330Z AUTO 12003KT 080V140 CAVOK M01/M03 Q1021
Conditions at: LEDA (LLEIDA-ALGUAIRE , ES) observed 2330 UTC 28 January 2023
Temperature: -1.0°C (30°F)
Dewpoint: -3.0°C (27°F) [RH = 86%]
Pressure (altimeter): 30.15 inches Hg (1021.0 mb)
Winds: from the ESE (120 degrees) at 3 MPH (3 knots; 1.5 m/s)
Visibility: 6 or more miles (10+ km)
Ceiling: ceiling and visibility are OK
Clouds: unknown
Weather: no significant weather observed at this time

METAR text: LEDA 282300Z AUTO 12003KT 070V150 CAVOK M01/M03 Q1021
Conditions at: LEDA (LLEIDA-ALGUAIRE , ES) observed 2300 UTC 28 January 2023
Temperature: -1.0°C (30°F)
Dewpoint: -3.0°C (27°F) [RH = 86%]
Pressure (altimeter): 30.15 inches Hg (1021.0 mb)
Winds: from the ESE (120 degrees) at 3 MPH (3 knots; 1.5 m/s)
Visibility: 6 or more miles (10+ km)
Ceiling: ceiling and visibility are OK
Clouds: unknown
Weather: no significant weather observed at this time

 AIRPORT MAP

 RUNWAY INFORMATION

 AIRPORT FREQUENCIES

 AIRPORT NEAR NAVIGATION AIDS